sensor_id;sensor_type;location;lat;lon;timestamp;temperature;humidity
67093;SHT31;54011;50.772;7.730;2023-05-18T00:00:00;11.42;59.83
67093;SHT31;54011;50.772;7.730;2023-05-18T00:02:26;10.90;61.29
67093;SHT31;54011;50.772;7.730;2023-05-18T00:04:52;11.07;61.05
67093;SHT31;54011;50.772;7.730;2023-05-18T00:07:17;11.12;61.13
67093;SHT31;54011;50.772;7.730;2023-05-18T00:09:43;10.90;61.45
67093;SHT31;54011;50.772;7.730;2023-05-18T00:12:08;11.22;60.62
67093;SHT31;54011;50.772;7.730;2023-05-18T00:14:35;11.15;60.93
67093;SHT31;54011;50.772;7.730;2023-05-18T00:17:01;11.14;60.98
67093;SHT31;54011;50.772;7.730;2023-05-18T00:19:27;10.93;60.95
67093;SHT31;54011;50.772;7.730;2023-05-18T00:21:55;10.83;60.93
67093;SHT31;54011;50.772;7.730;2023-05-18T00:24:21;10.93;60.79
67093;SHT31;54011;50.772;7.730;2023-05-18T00:26:47;10.84;61.06
67093;SHT31;54011;50.772;7.730;2023-05-18T00:29:13;10.77;61.42
67093;SHT31;54011;50.772;7.730;2023-05-18T00:31:39;10.98;60.71
67093;SHT31;54011;50.772;7.730;2023-05-18T00:34:15;10.87;60.81
67093;SHT31;54011;50.772;7.730;2023-05-18T00:36:41;10.83;61.06
67093;SHT31;54011;50.772;7.730;2023-05-18T00:39:08;10.71;61.32
67093;SHT31;54011;50.772;7.730;2023-05-18T00:41:33;10.68;61.50
67093;SHT31;54011;50.772;7.730;2023-05-18T00:43:59;10.52;61.75
67093;SHT31;54011;50.772;7.730;2023-05-18T00:46:26;10.53;61.76
67093;SHT31;54011;50.772;7.730;2023-05-18T00:48:54;10.28;62.01
67093;SHT31;54011;50.772;7.730;2023-05-18T00:51:22;10.26;61.95
67093;SHT31;54011;50.772;7.730;2023-05-18T00:53:51;10.08;62.82
67093;SHT31;54011;50.772;7.730;2023-05-18T00:56:18;10.40;61.81
67093;SHT31;54011;50.772;7.730;2023-05-18T00:58:44;10.49;61.23
67093;SHT31;54011;50.772;7.730;2023-05-18T01:01:10;10.28;61.58
67093;SHT31;54011;50.772;7.730;2023-05-18T01:03:36;10.08;62.40
67093;SHT31;54011;50.772;7.730;2023-05-18T01:06:05;9.94;62.93
67093;SHT31;54011;50.772;7.730;2023-05-18T01:08:31;9.96;62.72
67093;SHT31;54011;50.772;7.730;2023-05-18T01:11:13;9.92;62.06
67093;SHT31;54011;50.772;7.730;2023-05-18T01:13:55;9.85;62.20
67093;SHT31;54011;50.772;7.730;2023-05-18T01:16:26;9.74;62.29
67093;SHT31;54011;50.772;7.730;2023-05-18T01:24:41;9.65;62.94
67093;SHT31;54011;50.772;7.730;2023-05-18T01:27:07;9.75;62.63
67093;SHT31;54011;50.772;7.730;2023-05-18T01:29:34;9.71;62.74
67093;SHT31;54011;50.772;7.730;2023-05-18T01:32:00;9.65;62.94
67093;SHT31;54011;50.772;7.730;2023-05-18T01:34:28;9.70;62.66
67093;SHT31;54011;50.772;7.730;2023-05-18T01:36:53;9.71;62.32
67093;SHT31;54011;50.772;7.730;2023-05-18T01:39:19;9.54;62.43
67093;SHT31;54011;50.772;7.730;2023-05-18T01:41:58;9.34;63.18
67093;SHT31;54011;50.772;7.730;2023-05-18T01:44:50;9.38;63.09
67093;SHT31;54011;50.772;7.730;2023-05-18T01:47:17;9.44;62.77
67093;SHT31;54011;50.772;7.730;2023-05-18T01:50:02;9.51;62.45
67093;SHT31;54011;50.772;7.730;2023-05-18T01:52:40;9.36;63.11
67093;SHT31;54011;50.772;7.730;2023-05-18T01:55:08;9.38;62.35
67093;SHT31;54011;50.772;7.730;2023-05-18T01:57:35;9.26;63.11
67093;SHT31;54011;50.772;7.730;2023-05-18T02:00:02;8.93;63.90
67093;SHT31;54011;50.772;7.730;2023-05-18T02:02:41;8.80;65.09
67093;SHT31;54011;50.772;7.730;2023-05-18T02:05:08;8.85;65.00
67093;SHT31;54011;50.772;7.730;2023-05-18T02:07:39;9.07;64.09
67093;SHT31;54011;50.772;7.730;2023-05-18T02:10:08;9.06;64.77
67093;SHT31;54011;50.772;7.730;2023-05-18T02:12:34;9.00;64.75
67093;SHT31;54011;50.772;7.730;2023-05-18T02:15:00;8.97;64.66
67093;SHT31;54011;50.772;7.730;2023-05-18T02:17:33;8.96;65.14
67093;SHT31;54011;50.772;7.730;2023-05-18T02:20:01;9.19;64.76
67093;SHT31;54011;50.772;7.730;2023-05-18T02:22:27;9.38;63.99
67093;SHT31;54011;50.772;7.730;2023-05-18T02:24:53;9.43;63.46
67093;SHT31;54011;50.772;7.730;2023-05-18T02:27:18;9.22;63.66
67093;SHT31;54011;50.772;7.730;2023-05-18T02:29:44;9.09;63.72
67093;SHT31;54011;50.772;7.730;2023-05-18T02:32:10;9.13;63.89
67093;SHT31;54011;50.772;7.730;2023-05-18T02:34:35;9.03;63.18
67093;SHT31;54011;50.772;7.730;2023-05-18T02:37:03;8.95;62.72
67093;SHT31;54011;50.772;7.730;2023-05-18T02:39:29;8.88;63.10
67093;SHT31;54011;50.772;7.730;2023-05-18T02:41:55;8.73;62.85
67093;SHT31;54011;50.772;7.730;2023-05-18T02:44:21;8.34;63.71
67093;SHT31;54011;50.772;7.730;2023-05-18T02:46:47;8.33;63.47
67093;SHT31;54011;50.772;7.730;2023-05-18T02:49:13;8.37;63.36
67093;SHT31;54011;50.772;7.730;2023-05-18T02:51:39;8.27;63.23
67093;SHT31;54011;50.772;7.730;2023-05-18T02:54:05;8.28;63.23
67093;SHT31;54011;50.772;7.730;2023-05-18T02:56:33;7.90;64.20
67093;SHT31;54011;50.772;7.730;2023-05-18T02:59:13;8.37;63.25
67093;SHT31;54011;50.772;7.730;2023-05-18T03:01:41;8.26;63.35
67093;SHT31;54011;50.772;7.730;2023-05-18T03:04:10;8.31;63.21
67093;SHT31;54011;50.772;7.730;2023-05-18T03:06:42;8.08;63.53
67093;SHT31;54011;50.772;7.730;2023-05-18T03:09:10;8.27;62.92
67093;SHT31;54011;50.772;7.730;2023-05-18T03:11:41;7.98;63.90
67093;SHT31;54011;50.772;7.730;2023-05-18T03:14:08;8.08;63.57
67093;SHT31;54011;50.772;7.730;2023-05-18T03:16:34;8.00;63.58
67093;SHT31;54011;50.772;7.730;2023-05-18T03:19:05;7.87;64.03
67093;SHT31;54011;50.772;7.730;2023-05-18T03:21:35;7.97;63.63
67093;SHT31;54011;50.772;7.730;2023-05-18T03:24:01;7.93;63.97
67093;SHT31;54011;50.772;7.730;2023-05-18T03:26:29;7.76;64.60
67093;SHT31;54011;50.772;7.730;2023-05-18T03:28:56;7.42;65.00
67093;SHT31;54011;50.772;7.730;2023-05-18T03:31:22;7.79;64.43
67093;SHT31;54011;50.772;7.730;2023-05-18T03:33:48;7.89;63.94
67093;SHT31;54011;50.772;7.730;2023-05-18T03:36:14;8.00;64.22
67093;SHT31;54011;50.772;7.730;2023-05-18T03:38:42;7.87;64.93
67093;SHT31;54011;50.772;7.730;2023-05-18T03:41:11;7.79;65.86
67093;SHT31;54011;50.772;7.730;2023-05-18T03:43:37;7.85;65.56
67093;SHT31;54011;50.772;7.730;2023-05-18T03:46:03;8.10;65.34
67093;SHT31;54011;50.772;7.730;2023-05-18T03:48:28;8.41;64.43
67093;SHT31;54011;50.772;7.730;2023-05-18T03:50:55;8.04;65.15
67093;SHT31;54011;50.772;7.730;2023-05-18T03:53:21;8.24;65.02
67093;SHT31;54011;50.772;7.730;2023-05-18T03:55:47;8.06;65.17
67093;SHT31;54011;50.772;7.730;2023-05-18T03:58:16;8.14;65.24
67093;SHT31;54011;50.772;7.730;2023-05-18T04:00:46;8.18;64.65
67093;SHT31;54011;50.772;7.730;2023-05-18T04:03:12;8.20;64.43
67093;SHT31;54011;50.772;7.730;2023-05-18T04:05:40;8.66;62.83
67093;SHT31;54011;50.772;7.730;2023-05-18T04:08:08;8.11;64.25
67093;SHT31;54011;50.772;7.730;2023-05-18T04:10:34;8.40;64.12
67093;SHT31;54011;50.772;7.730;2023-05-18T04:13:02;8.27;65.14
67093;SHT31;54011;50.772;7.730;2023-05-18T04:15:27;8.44;64.27
67093;SHT31;54011;50.772;7.730;2023-05-18T04:17:53;8.51;63.96
67093;SHT31;54011;50.772;7.730;2023-05-18T04:20:19;8.38;63.84
67093;SHT31;54011;50.772;7.730;2023-05-18T04:22:46;8.31;64.36
67093;SHT31;54011;50.772;7.730;2023-05-18T04:25:16;8.27;64.94
67093;SHT31;54011;50.772;7.730;2023-05-18T04:27:42;8.49;64.74
67093;SHT31;54011;50.772;7.730;2023-05-18T04:30:11;8.42;65.27
67093;SHT31;54011;50.772;7.730;2023-05-18T04:32:39;8.55;65.25
67093;SHT31;54011;50.772;7.730;2023-05-18T04:35:08;8.72;65.06
67093;SHT31;54011;50.772;7.730;2023-05-18T04:37:35;8.68;64.97
67093;SHT31;54011;50.772;7.730;2023-05-18T04:40:06;8.82;65.08
67093;SHT31;54011;50.772;7.730;2023-05-18T04:42:33;9.15;64.02
67093;SHT31;54011;50.772;7.730;2023-05-18T04:45:00;9.12;64.07
67093;SHT31;54011;50.772;7.730;2023-05-18T04:47:35;9.15;64.67
67093;SHT31;54011;50.772;7.730;2023-05-18T04:50:03;8.88;65.11
67093;SHT31;54011;50.772;7.730;2023-05-18T04:52:30;9.06;64.47
67093;SHT31;54011;50.772;7.730;2023-05-18T04:54:56;8.90;64.49
67093;SHT31;54011;50.772;7.730;2023-05-18T04:57:21;8.82;64.81
67093;SHT31;54011;50.772;7.730;2023-05-18T04:59:47;9.03;64.70
67093;SHT31;54011;50.772;7.730;2023-05-18T05:02:12;9.23;64.03
67093;SHT31;54011;50.772;7.730;2023-05-18T05:04:39;9.19;64.26
67093;SHT31;54011;50.772;7.730;2023-05-18T05:07:07;9.50;63.68
67093;SHT31;54011;50.772;7.730;2023-05-18T05:09:32;9.28;64.49
67093;SHT31;54011;50.772;7.730;2023-05-18T05:11:58;8.95;65.37
67093;SHT31;54011;50.772;7.730;2023-05-18T05:14:24;9.15;65.01
67093;SHT31;54011;50.772;7.730;2023-05-18T05:16:50;9.64;64.62
67093;SHT31;54011;50.772;7.730;2023-05-18T05:19:16;9.54;64.63
67093;SHT31;54011;50.772;7.730;2023-05-18T05:21:42;9.67;64.80
67093;SHT31;54011;50.772;7.730;2023-05-18T05:24:07;9.20;65.23
67093;SHT31;54011;50.772;7.730;2023-05-18T05:26:34;9.59;64.46
67093;SHT31;54011;50.772;7.730;2023-05-18T05:28:59;9.87;64.01
67093;SHT31;54011;50.772;7.730;2023-05-18T05:31:25;9.57;64.15
67093;SHT31;54011;50.772;7.730;2023-05-18T05:33:51;10.08;63.58
67093;SHT31;54011;50.772;7.730;2023-05-18T05:36:17;10.13;62.95
67093;SHT31;54011;50.772;7.730;2023-05-18T05:38:43;10.74;61.82
67093;SHT31;54011;50.772;7.730;2023-05-18T05:41:10;10.29;62.80
67093;SHT31;54011;50.772;7.730;2023-05-18T05:43:36;10.84;61.65
67093;SHT31;54011;50.772;7.730;2023-05-18T05:46:02;10.73;61.38
67093;SHT31;54011;50.772;7.730;2023-05-18T05:48:28;11.05;60.83
67093;SHT31;54011;50.772;7.730;2023-05-18T05:50:53;11.38;60.42
67093;SHT31;54011;50.772;7.730;2023-05-18T05:53:19;11.29;60.06
67093;SHT31;54011;50.772;7.730;2023-05-18T05:55:47;11.67;59.79
67093;SHT31;54011;50.772;7.730;2023-05-18T05:58:15;11.10;61.30
67093;SHT31;54011;50.772;7.730;2023-05-18T06:00:45;11.67;59.44
67093;SHT31;54011;50.772;7.730;2023-05-18T06:03:11;11.76;59.66
67093;SHT31;54011;50.772;7.730;2023-05-18T06:05:40;11.36;59.79
67093;SHT31;54011;50.772;7.730;2023-05-18T06:08:08;11.61;59.68
67093;SHT31;54011;50.772;7.730;2023-05-18T06:10:34;11.98;58.75
67093;SHT31;54011;50.772;7.730;2023-05-18T06:13:00;12.14;58.58
67093;SHT31;54011;50.772;7.730;2023-05-18T06:15:46;12.33;57.35
67093;SHT31;54011;50.772;7.730;2023-05-18T06:18:15;12.51;57.62
67093;SHT31;54011;50.772;7.730;2023-05-18T06:20:43;12.54;57.04
67093;SHT31;54011;50.772;7.730;2023-05-18T06:23:08;12.75;56.64
67093;SHT31;54011;50.772;7.730;2023-05-18T06:25:43;12.40;57.26
67093;SHT31;54011;50.772;7.730;2023-05-18T06:28:18;13.10;56.30
67093;SHT31;54011;50.772;7.730;2023-05-18T06:30:57;12.95;55.99
67093;SHT31;54011;50.772;7.730;2023-05-18T06:33:48;13.42;55.20
67093;SHT31;54011;50.772;7.730;2023-05-18T06:36:15;13.56;55.13
67093;SHT31;54011;50.772;7.730;2023-05-18T06:38:40;13.88;54.98
67093;SHT31;54011;50.772;7.730;2023-05-18T06:41:06;13.97;54.35
67093;SHT31;54011;50.772;7.730;2023-05-18T06:43:32;13.68;55.04
67093;SHT31;54011;50.772;7.730;2023-05-18T06:46:20;14.15;53.69
67093;SHT31;54011;50.772;7.730;2023-05-18T06:48:48;14.65;52.89
67093;SHT31;54011;50.772;7.730;2023-05-18T06:51:17;14.06;53.34
67093;SHT31;54011;50.772;7.730;2023-05-18T06:53:43;14.21;53.28
67093;SHT31;54011;50.772;7.730;2023-05-18T06:56:09;14.91;52.50
67093;SHT31;54011;50.772;7.730;2023-05-18T06:58:41;14.14;53.58
67093;SHT31;54011;50.772;7.730;2023-05-18T07:01:07;14.59;52.05
67093;SHT31;54011;50.772;7.730;2023-05-18T07:03:33;14.74;52.29
67093;SHT31;54011;50.772;7.730;2023-05-18T07:06:03;14.55;52.43
67093;SHT31;54011;50.772;7.730;2023-05-18T07:08:30;15.36;51.48
67093;SHT31;54011;50.772;7.730;2023-05-18T07:10:56;15.23;50.90
67093;SHT31;54011;50.772;7.730;2023-05-18T07:13:23;15.54;50.62
67093;SHT31;54011;50.772;7.730;2023-05-18T07:15:49;15.87;50.40
67093;SHT31;54011;50.772;7.730;2023-05-18T07:18:15;16.24;49.15
67093;SHT31;54011;50.772;7.730;2023-05-18T07:20:41;15.76;50.51
67093;SHT31;54011;50.772;7.730;2023-05-18T07:23:06;15.82;49.75
67093;SHT31;54011;50.772;7.730;2023-05-18T07:25:32;15.83;49.23
67093;SHT31;54011;50.772;7.730;2023-05-18T07:27:58;15.76;50.09
67093;SHT31;54011;50.772;7.730;2023-05-18T07:30:27;16.54;49.45
67093;SHT31;54011;50.772;7.730;2023-05-18T07:32:53;16.94;47.98
67093;SHT31;54011;50.772;7.730;2023-05-18T07:35:18;16.69;49.61
67093;SHT31;54011;50.772;7.730;2023-05-18T07:37:45;17.13;47.61
67093;SHT31;54011;50.772;7.730;2023-05-18T07:40:11;17.36;47.32
67093;SHT31;54011;50.772;7.730;2023-05-18T07:42:43;17.16;47.12
67093;SHT31;54011;50.772;7.730;2023-05-18T07:45:09;18.04;46.14
67093;SHT31;54011;50.772;7.730;2023-05-18T07:47:35;17.57;46.68
67093;SHT31;54011;50.772;7.730;2023-05-18T07:50:01;17.93;46.09
67093;SHT31;54011;50.772;7.730;2023-05-18T07:52:27;18.12;45.40
67093;SHT31;54011;50.772;7.730;2023-05-18T07:54:54;18.15;45.03
67093;SHT31;54011;50.772;7.730;2023-05-18T07:57:21;18.46;44.56
67093;SHT31;54011;50.772;7.730;2023-05-18T07:59:46;18.24;44.90
67093;SHT31;54011;50.772;7.730;2023-05-18T08:02:12;17.81;45.57
67093;SHT31;54011;50.772;7.730;2023-05-18T08:04:38;18.43;44.91
67093;SHT31;54011;50.772;7.730;2023-05-18T08:07:03;18.67;44.78
67093;SHT31;54011;50.772;7.730;2023-05-18T08:09:29;18.02;45.05
67093;SHT31;54011;50.772;7.730;2023-05-18T08:11:56;18.87;44.22
67093;SHT31;54011;50.772;7.730;2023-05-18T08:14:24;19.15;44.61
67093;SHT31;54011;50.772;7.730;2023-05-18T08:16:50;19.38;42.45
67093;SHT31;54011;50.772;7.730;2023-05-18T08:19:16;19.69;42.68
67093;SHT31;54011;50.772;7.730;2023-05-18T08:21:42;19.74;42.04
67093;SHT31;54011;50.772;7.730;2023-05-18T08:24:17;18.83;42.95
67093;SHT31;54011;50.772;7.730;2023-05-18T08:26:43;19.31;41.95
67093;SHT31;54011;50.772;7.730;2023-05-18T08:29:10;19.99;40.97
67093;SHT31;54011;50.772;7.730;2023-05-18T08:31:37;19.83;41.64
67093;SHT31;54011;50.772;7.730;2023-05-18T08:34:06;20.92;40.50
67093;SHT31;54011;50.772;7.730;2023-05-18T08:36:33;20.24;38.95
67093;SHT31;54011;50.772;7.730;2023-05-18T08:38:59;19.79;40.51
67093;SHT31;54011;50.772;7.730;2023-05-18T08:41:58;20.74;39.05
67093;SHT31;54011;50.772;7.730;2023-05-18T08:44:29;21.77;37.83
67093;SHT31;54011;50.772;7.730;2023-05-18T08:46:55;21.79;38.20
67093;SHT31;54011;50.772;7.730;2023-05-18T08:49:23;22.07;35.86
67093;SHT31;54011;50.772;7.730;2023-05-18T08:51:56;22.00;35.08
67093;SHT31;54011;50.772;7.730;2023-05-18T08:54:25;22.38;35.13
67093;SHT31;54011;50.772;7.730;2023-05-18T08:56:52;20.87;37.58
67093;SHT31;54011;50.772;7.730;2023-05-18T08:59:24;22.15;36.42
67093;SHT31;54011;50.772;7.730;2023-05-18T09:01:51;20.82;37.52
67093;SHT31;54011;50.772;7.730;2023-05-18T09:04:20;21.32;38.13
67093;SHT31;54011;50.772;7.730;2023-05-18T09:06:50;20.95;37.48
67093;SHT31;54011;50.772;7.730;2023-05-18T09:09:18;20.91;37.42
67093;SHT31;54011;50.772;7.730;2023-05-18T09:11:46;20.30;38.58
67093;SHT31;54011;50.772;7.730;2023-05-18T09:14:13;19.90;38.55
67093;SHT31;54011;50.772;7.730;2023-05-18T09:16:39;20.58;39.15
67093;SHT31;54011;50.772;7.730;2023-05-18T09:19:05;20.40;38.83
67093;SHT31;54011;50.772;7.730;2023-05-18T09:21:31;21.08;37.70
67093;SHT31;54011;50.772;7.730;2023-05-18T09:23:59;21.38;37.17
67093;SHT31;54011;50.772;7.730;2023-05-18T09:26:28;21.13;37.62
67093;SHT31;54011;50.772;7.730;2023-05-18T09:28:54;21.05;36.77
67093;SHT31;54011;50.772;7.730;2023-05-18T09:31:21;20.40;37.80
67093;SHT31;54011;50.772;7.730;2023-05-18T09:33:51;20.60;38.97
67093;SHT31;54011;50.772;7.730;2023-05-18T09:36:26;21.89;36.34
67093;SHT31;54011;50.772;7.730;2023-05-18T09:48:56;22.66;34.93
67093;SHT31;54011;50.772;7.730;2023-05-18T10:00:26;23.07;35.05
67093;SHT31;54011;50.772;7.730;2023-05-18T10:10:37;25.15;32.39
67093;SHT31;54011;50.772;7.730;2023-05-18T10:13:06;24.55;33.86
67093;SHT31;54011;50.772;7.730;2023-05-18T10:15:34;24.87;32.44
67093;SHT31;54011;50.772;7.730;2023-05-18T10:18:01;24.87;31.36
67093;SHT31;54011;50.772;7.730;2023-05-18T10:20:27;24.95;31.37
67093;SHT31;54011;50.772;7.730;2023-05-18T10:22:54;24.48;31.45
67093;SHT31;54011;50.772;7.730;2023-05-18T10:25:23;24.19;32.71
67093;SHT31;54011;50.772;7.730;2023-05-18T10:27:54;23.77;33.21
67093;SHT31;54011;50.772;7.730;2023-05-18T10:30:21;24.56;32.04
67093;SHT31;54011;50.772;7.730;2023-05-18T10:32:47;23.98;32.42
67093;SHT31;54011;50.772;7.730;2023-05-18T10:35:13;23.51;32.36
67093;SHT31;54011;50.772;7.730;2023-05-18T10:37:44;24.28;32.49
67093;SHT31;54011;50.772;7.730;2023-05-18T10:40:13;25.70;31.05
67093;SHT31;54011;50.772;7.730;2023-05-18T10:42:43;24.59;31.03
67093;SHT31;54011;50.772;7.730;2023-05-18T10:45:10;24.91;30.85
67093;SHT31;54011;50.772;7.730;2023-05-18T10:47:36;24.42;30.77
67093;SHT31;54011;50.772;7.730;2023-05-18T10:50:07;23.91;31.56
67093;SHT31;54011;50.772;7.730;2023-05-18T10:52:35;25.01;31.39
67093;SHT31;54011;50.772;7.730;2023-05-18T10:55:05;25.55;30.08
67093;SHT31;54011;50.772;7.730;2023-05-18T10:57:37;24.30;31.50
67093;SHT31;54011;50.772;7.730;2023-05-18T11:00:05;25.61;29.85
67093;SHT31;54011;50.772;7.730;2023-05-18T11:02:33;26.04;30.95
67093;SHT31;54011;50.772;7.730;2023-05-18T11:05:04;25.88;29.18
67093;SHT31;54011;50.772;7.730;2023-05-18T11:07:30;25.66;29.49
67093;SHT31;54011;50.772;7.730;2023-05-18T11:10:00;25.07;29.86
67093;SHT31;54011;50.772;7.730;2023-05-18T11:12:26;24.95;30.29
67093;SHT31;54011;50.772;7.730;2023-05-18T11:14:53;26.26;29.54
67093;SHT31;54011;50.772;7.730;2023-05-18T11:17:24;26.65;28.72
67093;SHT31;54011;50.772;7.730;2023-05-18T11:22:45;26.95;28.10
67093;SHT31;54011;50.772;7.730;2023-05-18T11:25:43;27.15;28.31
67093;SHT31;54011;50.772;7.730;2023-05-18T11:28:12;26.50;29.30
67093;SHT31;54011;50.772;7.730;2023-05-18T11:33:28;24.95;30.05
67093;SHT31;54011;50.772;7.730;2023-05-18T11:36:02;25.97;30.31
67093;SHT31;54011;50.772;7.730;2023-05-18T11:39:04;27.77;28.93
67093;SHT31;54011;50.772;7.730;2023-05-18T11:41:39;25.82;31.33
67093;SHT31;54011;50.772;7.730;2023-05-18T11:47:17;26.98;28.37
67093;SHT31;54011;50.772;7.730;2023-05-18T11:49:45;26.44;29.76
67093;SHT31;54011;50.772;7.730;2023-05-18T11:54:42;28.41;28.36
67093;SHT31;54011;50.772;7.730;2023-05-18T11:57:18;27.19;27.86
67093;SHT31;54011;50.772;7.730;2023-05-18T11:59:45;27.60;28.60
67093;SHT31;54011;50.772;7.730;2023-05-18T12:02:13;27.77;28.81
67093;SHT31;54011;50.772;7.730;2023-05-18T12:04:47;27.12;29.52
67093;SHT31;54011;50.772;7.730;2023-05-18T12:07:17;27.60;28.90
67093;SHT31;54011;50.772;7.730;2023-05-18T12:09:44;28.28;26.42
67093;SHT31;54011;50.772;7.730;2023-05-18T12:12:13;28.63;28.44
67093;SHT31;54011;50.772;7.730;2023-05-18T12:14:43;28.62;27.38
67093;SHT31;54011;50.772;7.730;2023-05-18T12:17:12;27.66;28.23
67093;SHT31;54011;50.772;7.730;2023-05-18T12:19:46;28.46;27.65
67093;SHT31;54011;50.772;7.730;2023-05-18T12:22:12;27.28;27.10
67093;SHT31;54011;50.772;7.730;2023-05-18T12:24:38;28.83;26.80
67093;SHT31;54011;50.772;7.730;2023-05-18T12:27:08;28.04;27.64
67093;SHT31;54011;50.772;7.730;2023-05-18T12:29:38;27.06;28.32
67093;SHT31;54011;50.772;7.730;2023-05-18T12:32:08;28.52;28.67
67093;SHT31;54011;50.772;7.730;2023-05-18T12:34:35;28.27;27.56
67093;SHT31;54011;50.772;7.730;2023-05-18T12:37:03;29.24;27.25
67093;SHT31;54011;50.772;7.730;2023-05-18T12:39:28;29.50;26.83
67093;SHT31;54011;50.772;7.730;2023-05-18T12:42:10;29.95;25.85
67093;SHT31;54011;50.772;7.730;2023-05-18T12:44:37;27.91;27.64
67093;SHT31;54011;50.772;7.730;2023-05-18T12:47:03;29.71;27.29
67093;SHT31;54011;50.772;7.730;2023-05-18T12:49:34;29.34;27.87
67093;SHT31;54011;50.772;7.730;2023-05-18T12:52:13;29.18;26.04
67093;SHT31;54011;50.772;7.730;2023-05-18T12:54:47;30.71;26.55
67093;SHT31;54011;50.772;7.730;2023-05-18T12:57:14;30.67;26.52
67093;SHT31;54011;50.772;7.730;2023-05-18T12:59:47;30.59;25.65
67093;SHT31;54011;50.772;7.730;2023-05-18T13:02:34;30.13;26.36
67093;SHT31;54011;50.772;7.730;2023-05-18T13:05:08;28.90;27.06
67093;SHT31;54011;50.772;7.730;2023-05-18T13:07:36;30.27;25.74
67093;SHT31;54011;50.772;7.730;2023-05-18T13:10:09;30.12;26.31
67093;SHT31;54011;50.772;7.730;2023-05-18T13:12:49;30.30;25.68
67093;SHT31;54011;50.772;7.730;2023-05-18T13:18:07;30.26;25.89
67093;SHT31;54011;50.772;7.730;2023-05-18T13:23:18;31.49;24.94
67093;SHT31;54011;50.772;7.730;2023-05-18T13:25:44;30.29;25.51
67093;SHT31;54011;50.772;7.730;2023-05-18T13:28:11;30.20;26.76
67093;SHT31;54011;50.772;7.730;2023-05-18T13:30:38;30.44;26.98
67093;SHT31;54011;50.772;7.730;2023-05-18T13:33:05;31.15;24.76
67093;SHT31;54011;50.772;7.730;2023-05-18T13:35:33;31.36;24.86
67093;SHT31;54011;50.772;7.730;2023-05-18T13:37:59;30.84;25.79
67093;SHT31;54011;50.772;7.730;2023-05-18T13:40:24;29.86;27.04
67093;SHT31;54011;50.772;7.730;2023-05-18T13:42:50;30.41;26.34
67093;SHT31;54011;50.772;7.730;2023-05-18T13:45:16;31.53;25.06
67093;SHT31;54011;50.772;7.730;2023-05-18T13:47:42;31.72;23.91
67093;SHT31;54011;50.772;7.730;2023-05-18T13:50:10;31.59;24.65
67093;SHT31;54011;50.772;7.730;2023-05-18T13:52:35;31.72;24.37
67093;SHT31;54011;50.772;7.730;2023-05-18T13:55:02;30.92;24.98
67093;SHT31;54011;50.772;7.730;2023-05-18T13:57:29;31.05;25.39
67093;SHT31;54011;50.772;7.730;2023-05-18T13:59:56;31.08;25.32
67093;SHT31;54011;50.772;7.730;2023-05-18T14:02:26;32.17;24.08
67093;SHT31;54011;50.772;7.730;2023-05-18T14:04:51;30.48;25.10
67093;SHT31;54011;50.772;7.730;2023-05-18T14:07:17;31.45;24.96
67093;SHT31;54011;50.772;7.730;2023-05-18T14:09:42;31.61;24.64
67093;SHT31;54011;50.772;7.730;2023-05-18T14:12:08;32.20;23.14
67093;SHT31;54011;50.772;7.730;2023-05-18T14:14:35;32.14;24.81
67093;SHT31;54011;50.772;7.730;2023-05-18T14:17:01;31.36;24.92
67093;SHT31;54011;50.772;7.730;2023-05-18T14:19:27;30.57;25.95
67093;SHT31;54011;50.772;7.730;2023-05-18T14:21:52;29.76;24.84
67093;SHT31;54011;50.772;7.730;2023-05-18T14:24:18;30.91;25.13
67093;SHT31;54011;50.772;7.730;2023-05-18T14:26:44;32.28;24.99
67093;SHT31;54011;50.772;7.730;2023-05-18T14:29:09;32.72;23.45
67093;SHT31;54011;50.772;7.730;2023-05-18T14:31:35;32.31;23.81
67093;SHT31;54011;50.772;7.730;2023-05-18T14:34:00;32.78;22.95
67093;SHT31;54011;50.772;7.730;2023-05-18T14:36:26;32.02;25.16
67093;SHT31;54011;50.772;7.730;2023-05-18T14:38:52;32.19;24.72
67093;SHT31;54011;50.772;7.730;2023-05-18T14:41:17;32.25;23.31
67093;SHT31;54011;50.772;7.730;2023-05-18T14:43:43;28.52;26.81
67093;SHT31;54011;50.772;7.730;2023-05-18T14:46:10;30.92;25.35
67093;SHT31;54011;50.772;7.730;2023-05-18T14:48:36;31.43;25.22
67093;SHT31;54011;50.772;7.730;2023-05-18T14:51:01;30.77;24.60
67093;SHT31;54011;50.772;7.730;2023-05-18T14:53:27;32.16;24.61
67093;SHT31;54011;50.772;7.730;2023-05-18T14:55:52;31.21;25.01
67093;SHT31;54011;50.772;7.730;2023-05-18T14:58:17;31.59;25.87
67093;SHT31;54011;50.772;7.730;2023-05-18T15:00:43;31.41;24.44
67093;SHT31;54011;50.772;7.730;2023-05-18T15:03:08;30.87;24.39
67093;SHT31;54011;50.772;7.730;2023-05-18T15:05:34;30.36;25.68
67093;SHT31;54011;50.772;7.730;2023-05-18T15:08:00;31.73;25.10
67093;SHT31;54011;50.772;7.730;2023-05-18T15:10:25;32.31;25.37
67093;SHT31;54011;50.772;7.730;2023-05-18T15:12:51;29.74;26.00
67093;SHT31;54011;50.772;7.730;2023-05-18T15:15:17;31.14;25.40
67093;SHT31;54011;50.772;7.730;2023-05-18T15:17:42;32.68;25.24
67093;SHT31;54011;50.772;7.730;2023-05-18T15:20:09;31.80;24.89
67093;SHT31;54011;50.772;7.730;2023-05-18T15:22:34;31.96;24.72
67093;SHT31;54011;50.772;7.730;2023-05-18T15:25:01;30.70;24.75
67093;SHT31;54011;50.772;7.730;2023-05-18T15:27:28;31.42;23.99
67093;SHT31;54011;50.772;7.730;2023-05-18T15:29:54;31.43;24.51
67093;SHT31;54011;50.772;7.730;2023-05-18T15:32:20;30.99;25.19
67093;SHT31;54011;50.772;7.730;2023-05-18T15:34:45;31.65;24.26
67093;SHT31;54011;50.772;7.730;2023-05-18T15:37:10;30.91;25.35
67093;SHT31;54011;50.772;7.730;2023-05-18T15:39:36;31.05;24.27
67093;SHT31;54011;50.772;7.730;2023-05-18T15:42:02;30.64;24.26
67093;SHT31;54011;50.772;7.730;2023-05-18T15:44:29;30.13;24.48
67093;SHT31;54011;50.772;7.730;2023-05-18T15:46:55;30.56;24.14
67093;SHT31;54011;50.772;7.730;2023-05-18T15:49:20;28.97;25.68
67093;SHT31;54011;50.772;7.730;2023-05-18T15:51:46;30.20;24.44
67093;SHT31;54011;50.772;7.730;2023-05-18T15:54:12;29.75;24.76
67093;SHT31;54011;50.772;7.730;2023-05-18T15:56:37;30.40;24.50
67093;SHT31;54011;50.772;7.730;2023-05-18T15:59:04;30.83;23.90
67093;SHT31;54011;50.772;7.730;2023-05-18T16:01:34;31.04;25.61
67093;SHT31;54011;50.772;7.730;2023-05-18T16:04:00;31.43;23.52
67093;SHT31;54011;50.772;7.730;2023-05-18T16:06:27;31.86;23.71
67093;SHT31;54011;50.772;7.730;2023-05-18T16:08:53;30.53;24.75
67093;SHT31;54011;50.772;7.730;2023-05-18T16:11:20;31.31;24.25
67093;SHT31;54011;50.772;7.730;2023-05-18T16:13:46;29.85;25.25
67093;SHT31;54011;50.772;7.730;2023-05-18T16:16:18;29.61;25.25
67093;SHT31;54011;50.772;7.730;2023-05-18T16:18:44;29.74;25.79
67093;SHT31;54011;50.772;7.730;2023-05-18T16:21:10;30.27;24.79
67093;SHT31;54011;50.772;7.730;2023-05-18T16:23:35;30.73;25.54
67093;SHT31;54011;50.772;7.730;2023-05-18T16:26:01;32.19;24.11
67093;SHT31;54011;50.772;7.730;2023-05-18T16:28:30;31.46;24.29